Time;durP1;ratioP1;P1;durP2;ratioP2;P2;SDS_P1;SDS_P2;PMS_P1;PMS_P2;Temp;Humidity;BMP_temperature;BMP_pressure;BME280_temperature;BME280_humidity;BME280_pressure;Samples;Min_cycle;Max_cycle;Signal;HPM_P1;HPM_P2
2022/08/13 00:01:20;;;;;;;4.32;2.15;;;13.50;99.90;;;;;;5037599;28;20106;-53
2022/08/13 00:03:52;;;;;;;3.35;2.33;;;13.50;99.90;;;;;;5036263;28;20043;-54
2022/08/13 00:09:06;;;;;;;1.63;1.52;;;13.50;99.90;;;;;;5035647;28;20049;-54
2022/08/13 00:14:36;;;;;;;4.80;2.20;;;13.50;99.90;;;;;;5055579;28;20052;-54
2022/08/13 00:17:12;;;;;;;9.68;2.63;;;13.40;99.90;;;;;;5057225;28;20079;-55
2022/08/13 00:19:42;;;;;;;5.25;2.00;;;13.40;99.90;;;;;;5056524;28;20052;-54
2022/08/13 00:22:21;;;;;;;7.32;2.38;;;13.40;99.90;;;;;;5056546;28;20048;-54
2022/08/13 00:25:04;;;;;;;2.58;2.05;;;13.40;99.90;;;;;;5055041;28;20094;-54
2022/08/13 00:27:37;;;;;;;2.75;2.10;;;13.40;99.90;;;;;;5055962;28;20110;-53
2022/08/13 00:30:33;;;;;;;3.15;1.73;;;13.40;99.90;;;;;;5055980;28;20052;-55
2022/08/13 00:33:04;;;;;;;2.22;2.03;;;13.40;99.90;;;;;;5055526;28;20048;-56
2022/08/13 00:35:33;;;;;;;2.90;2.22;;;13.40;99.90;;;;;;5055727;28;20040;-55
2022/08/13 00:38:10;;;;;;;2.15;1.95;;;13.30;99.90;;;;;;5055860;28;20084;-54
2022/08/13 00:40:41;;;;;;;2.63;2.10;;;13.30;99.90;;;;;;5055846;28;20079;-54
2022/08/13 00:43:24;;;;;;;2.42;1.90;;;13.20;99.90;;;;;;5054211;28;20581;-55
2022/08/13 00:45:51;;;;;;;4.38;2.35;;;13.10;99.90;;;;;;5055854;28;20048;-55
2022/08/13 00:51:15;;;;;;;3.47;2.20;;;13.00;99.90;;;;;;5052591;28;20048;-54
2022/08/13 00:54:07;;;;;;;3.95;2.30;;;13.00;99.90;;;;;;5036618;28;20535;-55
2022/08/13 00:56:37;;;;;;;3.50;2.33;;;13.00;99.90;;;;;;5033602;28;20049;-54
2022/08/13 00:59:11;;;;;;;5.90;2.40;;;13.00;99.90;;;;;;5034651;28;20055;-53
2022/08/13 01:01:41;;;;;;;2.47;2.28;;;12.90;99.90;;;;;;5035234;28;20048;-54
2022/08/13 01:04:20;;;;;;;2.80;2.13;;;12.80;99.90;;;;;;5035570;28;20056;-54
2022/08/13 01:06:55;;;;;;;3.20;2.10;;;12.80;99.90;;;;;;5033633;28;20045;-54
2022/08/13 01:09:29;;;;;;;2.15;1.95;;;12.80;99.90;;;;;;5034674;28;20064;-55
2022/08/13 01:12:20;;;;;;;3.40;2.20;;;12.70;99.90;;;;;;5054819;28;20098;-53
2022/08/13 01:14:54;;;;;;;2.53;1.95;;;12.70;99.90;;;;;;5054191;28;20040;-54
2022/08/13 01:17:23;;;;;;;5.85;2.97;;;12.70;99.90;;;;;;5055274;28;20043;-54
2022/08/13 01:20:12;;;;;;;4.28;2.47;;;12.70;99.90;;;;;;5055786;28;20049;-52
2022/08/13 01:22:58;;;;;;;5.07;2.55;;;12.70;99.90;;;;;;5055133;28;20186;-54
2022/08/13 01:25:27;;;;;;;2.30;1.73;;;12.70;99.90;;;;;;5055201;28;20505;-55
2022/08/13 01:27:55;;;;;;;3.28;2.00;;;12.70;99.90;;;;;;5054813;28;20040;-52
2022/08/13 01:30:22;;;;;;;;;;;12.70;99.90;;;;;;5056254;28;20048;-55
2022/08/13 01:32:50;;;;;;;3.63;2.35;;;12.70;99.90;;;;;;5054635;28;19970;-53
2022/08/13 01:35:23;;;;;;;2.85;2.08;;;12.70;99.90;;;;;;5055316;28;20552;-55
2022/08/13 01:37:57;;;;;;;4.53;2.97;;;12.70;99.90;;;;;;5055413;28;20441;-55
2022/08/13 01:40:34;;;;;;;2.70;2.33;;;12.70;99.90;;;;;;5055632;28;20068;-54
2022/08/13 01:43:02;;;;;;;2.70;2.50;;;12.60;99.90;;;;;;5054631;28;20044;-51
2022/08/13 01:45:50;;;;;;;2.97;2.42;;;12.60;99.90;;;;;;5055134;28;20583;-55
2022/08/13 01:51:32;;;;;;;5.43;2.53;;;12.50;99.90;;;;;;5053625;28;20045;-54
2022/08/13 01:54:11;;;;;;;8.60;2.53;;;12.50;99.90;;;;;;5037365;28;20138;-54
2022/08/13 01:57:04;;;;;;;4.97;2.63;;;12.40;99.90;;;;;;5055033;28;20135;-54
2022/08/13 01:59:37;;;;;;;5.47;3.00;;;12.40;99.90;;;;;;5055004;28;20082;-53
2022/08/13 02:02:27;;;;;;;5.40;3.08;;;12.40;99.90;;;;;;5055027;28;20053;-56
2022/08/13 02:05:11;;;;;;;3.15;2.63;;;12.30;99.90;;;;;;5054440;28;20048;-55
2022/08/13 02:08:00;;;;;;;;;;;12.30;99.90;;;;;;5055497;28;20068;-53
2022/08/13 02:10:36;;;;;;;3.05;2.75;;;12.30;99.90;;;;;;5054187;28;19960;-54
2022/08/13 02:13:07;;;;;;;5.05;2.75;;;12.30;99.90;;;;;;5054411;28;20137;-54
2022/08/13 02:15:35;;;;;;;2.80;2.30;;;12.20;99.90;;;;;;5054289;28;20135;-54
2022/08/13 02:18:17;;;;;;;7.35;2.80;;;12.20;99.90;;;;;;5054384;28;20052;-55
2022/08/13 02:20:51;;;;;;;2.53;2.30;;;12.20;99.90;;;;;;5054856;28;20058;-56
2022/08/13 02:23:21;;;;;;;2.75;2.40;;;12.20;99.90;;;;;;5053718;28;20067;-54
2022/08/13 02:26:08;;;;;;;2.55;2.30;;;12.20;99.90;;;;;;5054760;28;20659;-53
2022/08/13 02:28:39;;;;;;;7.43;2.53;;;12.20;99.90;;;;;;5054164;28;20036;-55
2022/08/13 02:31:09;;;;;;;4.18;2.80;;;12.10;99.90;;;;;;5054291;28;20037;-55
2022/08/13 02:33:56;;;;;;;;;;;12.10;99.90;;;;;;5054056;28;20665;-56
2022/08/13 02:36:25;;;;;;;4.40;2.42;;;12.10;99.90;;;;;;5053198;28;20020;-54
2022/08/13 02:39:02;;;;;;;3.78;2.30;;;12.10;99.90;;;;;;5054518;28;20619;-56
2022/08/13 02:41:39;;;;;;;2.20;2.00;;;12.10;99.90;;;;;;5054921;28;20823;-55
2022/08/13 02:44:20;;;;;;;8.98;2.50;;;12.00;99.90;;;;;;5053576;28;20044;-55
2022/08/13 02:47:04;;;;;;;4.85;1.90;;;12.10;99.90;;;;;;5054387;28;20040;-55
2022/08/13 02:49:32;;;;;;;4.90;1.85;;;12.10;99.90;;;;;;5054524;28;20514;-54
2022/08/13 02:52:13;;;;;;;2.42;2.22;;;12.00;99.90;;;;;;5046695;28;20036;-55
2022/08/13 02:54:43;;;;;;;2.75;2.33;;;12.10;99.90;;;;;;5037704;28;20826;-52
2022/08/13 02:57:22;;;;;;;3.92;2.25;;;12.00;99.90;;;;;;5034278;28;20581;-54
2022/08/13 02:59:49;;;;;;;3.22;2.58;;;12.00;99.90;;;;;;5034714;28;20078;-55
2022/08/13 03:02:37;;;;;;;2.60;2.13;;;12.00;99.90;;;;;;5033516;28;20518;-54
2022/08/13 03:05:08;;;;;;;4.10;2.38;;;11.90;99.90;;;;;;5033616;28;20515;-55
2022/08/13 03:07:40;;;;;;;5.60;2.60;;;11.90;99.90;;;;;;5033576;28;20057;-54
2022/08/13 03:10:22;;;;;;;2.35;1.90;;;11.90;99.90;;;;;;5043039;28;20123;-55
2022/08/13 03:13:07;;;;;;;2.60;2.25;;;11.90;99.90;;;;;;5053246;28;20045;-51
2022/08/13 03:15:36;;;;;;;2.75;2.50;;;11.80;99.90;;;;;;5053206;28;20048;-54
2022/08/13 03:18:22;;;;;;;3.45;2.45;;;11.90;99.90;;;;;;5053632;28;20563;-53
2022/08/13 03:20:52;;;;;;;3.22;2.22;;;11.80;99.90;;;;;;5054125;28;20051;-54
2022/08/13 03:23:22;;;;;;;2.13;1.92;;;11.80;99.90;;;;;;5053423;28;20055;-54
2022/08/13 03:25:51;;;;;;;3.45;2.15;;;11.80;99.90;;;;;;5054216;28;20040;-56
2022/08/13 03:28:18;;;;;;;;;;;11.80;99.90;;;;;;5054713;28;20041;-54
2022/08/13 03:30:46;;;;;;;5.20;2.20;;;11.80;99.90;;;;;;5054232;28;19935;-54
2022/08/13 03:33:21;;;;;;;2.78;2.47;;;11.80;99.90;;;;;;5057836;28;20055;-54
2022/08/13 03:35:48;;;;;;;16.90;3.40;;;11.80;99.90;;;;;;5057186;28;20044;-57
2022/08/13 03:38:15;;;;;;;4.05;2.40;;;11.70;99.90;;;;;;5057866;28;20052;-55
2022/08/13 03:41:00;;;;;;;4.50;2.28;;;11.70;99.90;;;;;;5056937;28;20048;-54
2022/08/13 03:43:28;;;;;;;2.85;2.47;;;11.60;99.90;;;;;;5056029;28;20079;-54
2022/08/13 03:45:58;;;;;;;3.25;2.65;;;11.60;99.90;;;;;;5056810;28;20056;-55
2022/08/13 03:48:26;;;;;;;2.72;2.35;;;11.60;99.90;;;;;;5056040;28;20070;-54
2022/08/13 03:50:53;;;;;;;2.67;2.03;;;11.50;99.90;;;;;;5057011;28;20098;-55
2022/08/13 03:53:22;;;;;;;4.03;2.70;;;11.50;99.90;;;;;;5055438;28;20289;-55
2022/08/13 03:56:12;;;;;;;3.47;2.28;;;11.50;99.90;;;;;;5043856;28;20040;-52
2022/08/13 03:58:44;;;;;;;4.70;2.00;;;11.50;99.90;;;;;;5037435;28;20124;-54
2022/08/13 04:01:14;;;;;;;4.93;2.95;;;11.40;99.90;;;;;;5035927;28;20048;-54
2022/08/13 04:03:45;;;;;;;6.97;2.38;;;11.40;99.90;;;;;;5036682;28;20048;-56
2022/08/13 04:06:16;;;;;;;2.58;2.38;;;11.40;99.90;;;;;;5037725;28;20044;-55
2022/08/13 04:08:52;;;;;;;4.55;2.70;;;11.40;99.90;;;;;;5035277;28;20076;-55
2022/08/13 04:11:25;;;;;;;2.28;2.08;;;11.40;99.90;;;;;;5053936;28;20045;-55
2022/08/13 04:13:54;;;;;;;10.75;2.78;;;11.30;99.90;;;;;;5056253;28;20596;-54
2022/08/13 04:16:33;;;;;;;3.20;2.42;;;11.30;99.90;;;;;;5056810;28;20597;-53
2022/08/13 04:19:01;;;;;;;2.92;2.40;;;11.30;99.90;;;;;;5056617;28;20465;-54
2022/08/13 04:21:32;;;;;;;3.50;2.30;;;11.30;99.90;;;;;;5055436;28;20138;-54
2022/08/13 04:24:04;;;;;;;4.88;2.80;;;11.20;99.90;;;;;;5056662;28;20076;-55
2022/08/13 04:26:32;;;;;;;4.57;2.75;;;11.20;99.90;;;;;;5056244;28;20127;-54
2022/08/13 04:29:04;;;;;;;2.63;2.40;;;11.10;99.90;;;;;;5056700;28;20044;-54
2022/08/13 04:31:33;;;;;;;3.75;2.70;;;11.10;99.90;;;;;;5056138;28;20052;-54
2022/08/13 04:34:21;;;;;;;3.65;2.72;;;11.10;99.90;;;;;;5056447;28;20128;-53
2022/08/13 04:37:05;;;;;;;4.50;3.10;;;11.20;99.90;;;;;;5056244;28;20048;-55
2022/08/13 04:39:35;;;;;;;2.78;2.58;;;11.20;99.90;;;;;;5056654;28;20044;-54
2022/08/13 04:42:22;;;;;;;2.40;2.10;;;11.20;99.90;;;;;;5053813;28;20056;-54
2022/08/13 04:45:04;;;;;;;4.63;2.75;;;11.20;99.90;;;;;;5054746;28;20040;-54
2022/08/13 04:47:42;;;;;;;2.72;2.53;;;11.20;99.90;;;;;;5054505;28;20044;-55
2022/08/13 04:50:11;;;;;;;3.03;2.63;;;11.30;99.90;;;;;;5056554;28;20040;-55
2022/08/13 04:52:43;;;;;;;3.50;2.92;;;11.30;99.90;;;;;;5054304;28;20076;-56
2022/08/13 04:55:16;;;;;;;5.85;3.15;;;11.30;99.90;;;;;;5052798;28;20045;-56
2022/08/13 04:57:43;;;;;;;3.70;2.80;;;11.40;99.90;;;;;;5035308;28;20049;-48
2022/08/13 05:00:32;;;;;;;7.80;3.33;;;11.40;99.90;;;;;;5036266;28;20511;-47
2022/08/13 05:03:20;;;;;;;4.63;2.55;;;11.50;99.90;;;;;;5035641;28;20073;-49
2022/08/13 05:05:59;;;;;;;3.53;3.10;;;11.60;99.90;;;;;;5036075;28;20044;-47
2022/08/13 05:08:31;;;;;;;4.03;2.75;;;11.70;99.90;;;;;;5036044;28;20049;-48
2022/08/13 05:11:00;;;;;;;4.70;3.00;;;11.80;99.90;;;;;;5047429;28;20045;-48
2022/08/13 05:13:29;;;;;;;3.42;2.42;;;11.90;99.90;;;;;;5055177;28;20052;-49
2022/08/13 05:16:12;;;;;;;3.90;3.08;;;12.00;99.90;;;;;;5055557;28;20143;-49
2022/08/13 05:18:43;;;;;;;3.47;3.00;;;12.00;99.90;;;;;;5054564;28;20044;-48
2022/08/13 05:21:12;;;;;;;3.80;2.63;;;12.10;99.90;;;;;;5055275;28;20064;-48
2022/08/13 05:23:44;;;;;;;3.00;2.65;;;12.20;99.90;;;;;;5055735;28;20059;-48
2022/08/13 05:26:31;;;;;;;4.97;2.60;;;12.20;99.90;;;;;;5055286;28;20040;-50
2022/08/13 05:29:19;;;;;;;3.38;2.28;;;12.30;99.90;;;;;;5055659;28;20041;-47
2022/08/13 05:31:46;;;;;;;4.10;3.10;;;12.40;99.90;;;;;;5055346;28;20757;-48
2022/08/13 05:34:25;;;;;;;4.07;2.90;;;12.50;99.90;;;;;;5055212;28;20063;-48
2022/08/13 05:36:54;;;;;;;4.95;2.78;;;12.60;99.90;;;;;;5055181;28;20044;-50
2022/08/13 05:39:42;;;;;;;5.43;2.08;;;12.70;99.90;;;;;;5054340;28;20044;-50
2022/08/13 05:42:18;;;;;;;3.15;2.70;;;12.80;99.90;;;;;;5055679;28;20052;-48
2022/08/13 05:44:54;;;;;;;;;;;12.90;99.90;;;;;;5055178;28;20055;-51
2022/08/13 05:47:21;;;;;;;4.82;2.92;;;13.10;99.90;;;;;;5055621;28;19960;-48
2022/08/13 05:49:51;;;;;;;7.28;2.97;;;13.20;99.90;;;;;;5054828;28;20083;-48
2022/08/13 05:52:25;;;;;;;4.65;3.22;;;13.30;99.90;;;;;;5054615;28;20574;-48
2022/08/13 05:55:11;;;;;;;3.67;2.53;;;13.50;99.90;;;;;;5054044;28;20060;-48
2022/08/13 05:57:58;;;;;;;2.53;2.33;;;13.60;99.90;;;;;;5041737;28;20147;-48
2022/08/13 06:03:27;;;;;;;4.03;2.65;;;13.80;99.90;;;;;;5034812;28;20059;-48
2022/08/13 06:06:18;;;;;;;4.53;2.20;;;14.00;99.90;;;;;;5034826;28;20085;-48
2022/08/13 06:08:58;;;;;;;7.73;2.87;;;14.00;99.90;;;;;;5033495;28;20139;-48
2022/08/13 06:11:29;;;;;;;8.80;3.10;;;14.10;99.90;;;;;;5051284;28;20070;-49
2022/08/13 06:14:20;;;;;;;4.78;2.42;;;14.10;99.90;;;;;;5054092;28;20048;-48
2022/08/13 06:16:51;;;;;;;8.65;3.20;;;14.20;99.90;;;;;;5054519;28;20041;-49
2022/08/13 06:19:26;;;;;;;5.85;3.35;;;14.30;99.90;;;;;;5054887;28;20062;-50
2022/08/13 06:22:02;;;;;;;3.67;3.20;;;14.30;99.90;;;;;;5053966;28;20764;-49
2022/08/13 06:24:35;;;;;;;6.35;3.08;;;14.30;99.90;;;;;;5054402;28;20048;-48
2022/08/13 06:27:19;;;;;;;3.55;2.55;;;14.30;99.90;;;;;;5054474;28;20079;-54
2022/08/13 06:29:48;;;;;;;4.03;2.92;;;14.30;99.90;;;;;;5054635;28;20075;-48
2022/08/13 06:32:20;;;;;;;5.22;3.25;;;14.40;99.90;;;;;;5054169;28;20537;-48
2022/08/13 06:35:08;;;;;;;3.10;2.78;;;14.50;99.90;;;;;;5053812;28;20125;-48
2022/08/13 06:37:41;;;;;;;3.22;2.50;;;14.60;99.90;;;;;;5054565;28;20048;-48
2022/08/13 06:40:21;;;;;;;4.70;3.03;;;14.70;99.90;;;;;;5054427;28;20714;-53
2022/08/13 06:43:00;;;;;;;7.60;3.05;;;14.80;99.90;;;;;;5054203;28;20158;-56
2022/08/13 06:45:29;;;;;;;4.78;3.47;;;15.00;99.90;;;;;;5053861;28;20123;-54
2022/08/13 06:48:00;;;;;;;5.32;2.85;;;15.00;99.90;;;;;;5054671;28;20037;-54
2022/08/13 06:50:27;;;;;;;4.00;2.25;;;15.20;99.90;;;;;;5053173;28;20663;-54
2022/08/13 06:52:56;;;;;;;;;;;15.30;99.90;;;;;;5054335;28;20601;-53
2022/08/13 06:55:45;;;;;;;5.25;2.90;;;15.40;99.90;;;;;;5053285;28;19932;-54
2022/08/13 06:58:32;;;;;;;10.48;2.88;;;15.60;99.90;;;;;;5034248;28;20128;-53
2022/08/13 07:00:59;;;;;;;2.92;2.50;;;15.80;99.90;;;;;;5033791;28;20055;-51
2022/08/13 07:03:32;;;;;;;3.97;2.60;;;15.90;99.90;;;;;;5040521;28;20049;-53
2022/08/13 07:06:25;;;;;;;3.67;2.17;;;16.10;99.90;;;;;;5054395;28;20037;-53
2022/08/13 07:08:59;;;;;;;3.08;2.65;;;16.20;99.90;;;;;;5058357;28;20120;-53
2022/08/13 07:11:28;;;;;;;4.93;2.95;;;16.30;99.90;;;;;;5058113;28;20592;-51
2022/08/13 07:14:06;;;;;;;4.93;3.10;;;16.40;99.90;;;;;;5057467;28;20050;-52
2022/08/13 07:16:41;;;;;;;5.38;2.88;;;16.50;99.90;;;;;;5058387;28;20048;-52
2022/08/13 07:19:11;;;;;;;3.28;2.75;;;16.60;99.90;;;;;;5057910;28;20082;-52
2022/08/13 07:21:40;;;;;;;3.00;2.47;;;16.70;99.90;;;;;;5058242;28;20048;-51
2022/08/13 07:24:10;;;;;;;2.90;2.28;;;16.90;99.90;;;;;;5057792;28;20143;-52
2022/08/13 07:27:07;;;;;;;2.63;2.42;;;17.10;99.90;;;;;;5057952;28;20496;-53
2022/08/13 07:29:38;;;;;;;2.80;2.30;;;17.30;99.90;;;;;;5057828;28;20052;-50
2022/08/13 07:32:18;;;;;;;3.72;2.60;;;17.50;99.90;;;;;;5057963;28;20098;-55
2022/08/13 07:34:46;;;;;;;3.33;2.60;;;17.70;99.90;;;;;;5054798;28;20556;-54
2022/08/13 07:37:21;;;;;;;4.35;2.70;;;18.00;99.90;;;;;;5056380;28;20055;-54
2022/08/13 07:39:50;;;;;;;3.55;2.47;;;18.10;99.90;;;;;;5056081;28;20059;-55
2022/08/13 07:42:21;;;;;;;3.28;2.95;;;18.30;99.90;;;;;;5058037;28;20891;-54
2022/08/13 07:44:58;;;;;;;3.05;2.63;;;18.30;99.90;;;;;;5056959;28;20044;-55
2022/08/13 07:47:52;;;;;;;;;;;18.30;99.90;;;;;;5057050;28;20048;-53
2022/08/13 07:50:40;;;;;;;6.32;2.97;;;18.30;99.90;;;;;;5056741;28;19925;-57
2022/08/13 07:53:10;;;;;;;4.00;2.65;;;18.40;99.90;;;;;;5055691;28;20640;-57
2022/08/13 07:55:44;;;;;;;8.23;2.30;;;18.40;99.90;;;;;;5056149;28;20052;-58
2022/08/13 07:58:35;;;;;;;3.08;2.60;;;18.60;99.90;;;;;;5048923;28;20049;-56
2022/08/13 08:01:05;;;;;;;4.38;2.53;;;18.80;99.90;;;;;;5036418;28;20056;-54
2022/08/13 08:03:45;;;;;;;4.57;2.40;;;19.50;99.90;;;;;;5036514;28;20215;-54
2022/08/13 08:06:20;;;;;;;3.17;2.67;;;20.20;99.90;;;;;;5037572;28;20088;-58
2022/08/13 08:08:57;;;;;;;3.03;2.72;;;20.90;99.90;;;;;;5035713;28;20442;-57
2022/08/13 08:14:18;;;;;;;4.63;2.92;;;22.10;99.90;;;;;;5056946;28;20708;-64
2022/08/13 08:16:59;;;;;;;2.72;2.50;;;22.60;99.90;;;;;;5057323;28;20052;-63
2022/08/13 08:19:50;;;;;;;3.45;2.70;;;23.00;98.40;;;;;;5056510;28;20068;-62
2022/08/13 08:22:44;;;;;;;3.10;2.80;;;23.40;97.20;;;;;;5055772;28;20570;-63
2022/08/13 08:25:19;;;;;;;5.45;2.30;;;23.80;92.30;;;;;;5055376;28;20284;-63
2022/08/13 08:27:50;;;;;;;3.47;2.70;;;23.90;83.80;;;;;;5056615;28;20056;-64
2022/08/13 08:30:37;;;;;;;2.83;2.17;;;24.00;83.30;;;;;;5057050;28;20055;-63
2022/08/13 08:33:26;;;;;;;6.20;2.67;;;24.20;81.60;;;;;;5056814;28;20055;-63
2022/08/13 08:36:13;;;;;;;5.07;2.83;;;24.30;81.20;;;;;;5056623;28;20048;-63
2022/08/13 08:44:32;;;;;;;4.18;2.40;;;24.70;74.50;;;;;;5056401;28;20418;-63
2022/08/13 08:47:01;;;;;;;5.35;2.22;;;25.00;75.80;;;;;;5055253;28;20608;-63
2022/08/13 08:49:36;;;;;;;3.13;2.58;;;25.20;73.20;;;;;;5056387;28;20048;-64
2022/08/13 08:52:12;;;;;;;5.40;2.42;;;25.40;72.10;;;;;;5049792;28;20044;-63
2022/08/13 08:54:45;;;;;;;6.80;2.63;;;25.50;69.40;;;;;;5056166;28;20040;-63
2022/08/13 08:57:16;;;;;;;6.18;2.53;;;25.50;69.30;;;;;;5055313;28;20068;-63
2022/08/13 08:59:43;;;;;;;5.53;2.80;;;25.70;65.40;;;;;;5050444;28;20458;-63
2022/08/13 09:02:24;;;;;;;3.30;2.37;;;25.70;67.40;;;;;;5019098;28;20096;-63
2022/08/13 09:04:54;;;;;;;6.22;2.88;;;25.80;67.90;;;;;;5035339;28;20056;-63
2022/08/13 09:07:46;;;;;;;3.78;2.38;;;25.90;67.00;;;;;;5036657;28;20041;-64
2022/08/13 09:10:17;;;;;;;5.25;2.33;;;26.00;65.10;;;;;;5042811;28;20045;-63
2022/08/13 09:12:56;;;;;;;4.45;2.90;;;26.10;63.50;;;;;;5055616;28;20037;-61
2022/08/13 09:15:23;;;;;;;8.38;2.78;;;26.20;62.70;;;;;;5054600;28;20052;-62
2022/08/13 09:17:58;;;;;;;5.95;2.42;;;26.20;62.70;;;;;;5055148;28;20127;-62
2022/08/13 09:20:28;;;;;;;3.60;2.30;;;26.30;62.90;;;;;;5055896;28;20040;-62
2022/08/13 09:23:07;;;;;;;3.20;1.98;;;26.40;61.50;;;;;;5056117;28;20072;-62
2022/08/13 09:25:53;;;;;;;3.22;2.50;;;26.50;60.50;;;;;;5053481;28;20041;-63
2022/08/13 09:28:23;;;;;;;4.45;2.55;;;26.60;59.80;;;;;;5037058;28;20051;-62
2022/08/13 09:31:04;;;;;;;2.05;1.90;;;26.60;58.80;;;;;;5055382;28;20044;-62
2022/08/13 09:33:45;;;;;;;3.20;2.15;;;26.50;58.70;;;;;;5055980;28;20135;-62
2022/08/13 09:36:28;;;;;;;2.90;2.22;;;26.50;57.90;;;;;;5053799;28;20051;-63
2022/08/13 09:38:56;;;;;;;3.22;2.22;;;26.70;58.60;;;;;;5056076;28;20426;-63
2022/08/13 09:41:31;;;;;;;4.05;2.20;;;26.90;57.30;;;;;;5055306;28;20044;-62
2022/08/13 09:44:04;;;;;;;2.33;2.13;;;27.00;56.20;;;;;;5053979;28;20093;-63
2022/08/13 09:46:45;;;;;;;6.82;2.38;;;27.10;57.60;;;;;;5055104;28;20051;-63
2022/08/13 09:49:22;;;;;;;4.60;2.35;;;27.20;57.80;;;;;;5056096;28;20485;-63
2022/08/13 09:52:08;;;;;;;2.25;2.05;;;27.30;57.30;;;;;;5046767;28;20043;-63
2022/08/13 09:54:49;;;;;;;7.25;2.33;;;27.40;56.20;;;;;;5055706;28;20045;-63
2022/08/13 09:57:20;;;;;;;2.50;1.80;;;27.60;55.30;;;;;;5054315;28;20040;-63
2022/08/13 09:59:49;;;;;;;3.63;1.90;;;27.70;56.20;;;;;;5053832;28;20349;-62
2022/08/13 10:02:24;;;;;;;6.10;2.28;;;27.70;55.70;;;;;;5038668;28;20117;-62
2022/08/13 10:04:52;;;;;;;4.05;1.70;;;27.80;53.70;;;;;;5034385;28;20800;-63
2022/08/13 10:07:19;;;;;;;3.50;1.98;;;27.80;53.50;;;;;;5034178;28;20052;-62
2022/08/13 10:09:48;;;;;;;6.32;2.10;;;28.00;52.90;;;;;;5038484;28;20275;-62
2022/08/13 10:12:35;;;;;;;4.22;1.90;;;28.00;52.00;;;;;;5054617;28;20040;-63
2022/08/13 10:15:04;;;;;;;5.15;2.08;;;28.00;51.50;;;;;;5053937;28;20082;-63
2022/08/13 10:17:49;;;;;;;5.72;2.10;;;28.10;50.40;;;;;;5054988;28;20071;-63
2022/08/13 10:20:27;;;;;;;7.95;3.35;;;28.10;50.80;;;;;;5054757;28;20029;-63
2022/08/13 10:22:55;;;;;;;3.40;1.77;;;28.20;50.70;;;;;;5054417;28;20048;-63
2022/08/13 10:25:26;;;;;;;2.90;1.92;;;28.20;49.10;;;;;;5054314;28;20040;-63
2022/08/13 10:28:21;;;;;;;2.30;1.70;;;28.20;49.00;;;;;;5053932;28;20036;-62
2022/08/13 10:31:00;;;;;;;2.35;2.15;;;28.20;49.40;;;;;;5054588;28;20045;-64
2022/08/13 10:33:47;;;;;;;6.07;2.17;;;28.00;48.40;;;;;;5054008;28;20114;-62
2022/08/13 10:36:16;;;;;;;2.25;1.80;;;27.90;49.30;;;;;;5054144;28;20044;-63
2022/08/13 10:38:44;;;;;;;2.90;1.58;;;27.80;49.30;;;;;;5054553;28;20135;-63
2022/08/13 10:41:21;;;;;;;3.30;1.80;;;27.90;50.40;;;;;;5034834;28;20064;-65
2022/08/13 10:43:51;;;;;;;3.45;1.80;;;28.00;47.30;;;;;;5034104;28;20049;-65
2022/08/13 10:46:24;;;;;;;4.50;1.67;;;28.00;48.40;;;;;;5034136;28;20375;-64
2022/08/13 10:48:55;;;;;;;8.38;1.67;;;28.00;45.80;;;;;;5034422;28;20187;-64
2022/08/13 10:51:29;;;;;;;5.25;1.90;;;28.10;46.00;;;;;;5048443;28;20083;-64
2022/08/13 10:54:02;;;;;;;2.22;1.90;;;28.00;45.50;;;;;;5053811;28;20052;-64
2022/08/13 10:56:31;;;;;;;2.08;1.77;;;28.10;46.70;;;;;;5052571;28;20603;-65
2022/08/13 10:59:00;;;;;;;2.63;1.88;;;28.20;47.40;;;;;;5053653;28;20048;-63
2022/08/13 11:01:29;;;;;;;4.78;1.95;;;28.20;46.40;;;;;;5047310;28;20044;-63
2022/08/13 11:03:58;;;;;;;3.05;2.35;;;28.30;46.20;;;;;;5036154;28;20049;-63
2022/08/13 11:06:37;;;;;;;4.43;1.80;;;28.20;46.10;;;;;;5033005;28;20067;-63
2022/08/13 11:09:06;;;;;;;3.38;1.50;;;28.20;45.40;;;;;;5033123;28;20041;-63
2022/08/13 11:11:58;;;;;;;3.73;1.87;;;28.30;45.30;;;;;;5038168;28;20414;-63
2022/08/13 11:14:29;;;;;;;3.42;1.90;;;28.40;45.50;;;;;;5053198;28;20054;-63
2022/08/13 11:17:03;;;;;;;5.63;1.67;;;28.30;45.40;;;;;;5053381;28;20115;-63
2022/08/13 11:19:38;;;;;;;2.55;1.52;;;28.30;45.30;;;;;;5054468;28;20044;-63
2022/08/13 11:22:20;;;;;;;6.00;1.75;;;28.30;44.60;;;;;;5052314;28;20075;-63
2022/08/13 11:24:59;;;;;;;2.25;1.52;;;28.40;44.40;;;;;;5053520;28;20040;-63
2022/08/13 11:27:35;;;;;;;3.05;1.27;;;28.40;45.70;;;;;;5053829;28;20036;-63
2022/08/13 11:30:19;;;;;;;3.88;1.92;;;28.50;45.70;;;;;;5054569;28;20051;-63
2022/08/13 11:33:00;;;;;;;1.38;1.17;;;28.60;44.00;;;;;;5052027;28;20049;-63
2022/08/13 11:35:33;;;;;;;2.63;1.48;;;28.80;43.00;;;;;;5054252;28;20048;-63
2022/08/13 11:38:07;;;;;;;3.88;1.77;;;28.80;43.70;;;;;;5053648;28;20080;-64
2022/08/13 11:40:35;;;;;;;4.13;1.80;;;28.60;44.50;;;;;;5054688;28;20408;-64
2022/08/13 11:43:06;;;;;;;1.95;1.48;;;28.50;44.60;;;;;;5053747;28;20076;-64
2022/08/13 11:45:44;;;;;;;4.45;1.75;;;28.50;44.10;;;;;;5053012;28;20051;-64
2022/08/13 11:48:15;;;;;;;3.63;1.60;;;28.60;45.30;;;;;;5053973;28;20144;-64
2022/08/13 11:50:49;;;;;;;2.72;1.40;;;28.70;45.20;;;;;;5053620;28;20047;-64
2022/08/13 11:53:18;;;;;;;3.35;1.80;;;28.80;44.40;;;;;;5054829;28;20040;-64
2022/08/13 11:55:51;;;;;;;1.65;1.40;;;28.90;44.20;;;;;;5056050;28;20245;-65
2022/08/13 11:58:29;;;;;;;3.42;1.48;;;29.00;43.00;;;;;;5057926;28;20048;-64
2022/08/13 12:01:16;;;;;;;2.08;1.50;;;29.10;42.60;;;;;;5057238;28;20388;-64
2022/08/13 12:03:50;;;;;;;1.50;1.20;;;29.00;43.80;;;;;;5050925;28;20138;-64
2022/08/13 12:06:36;;;;;;;;;;;29.10;44.10;;;;;;5037822;28;20037;-64
2022/08/13 12:09:04;;;;;;;;;;;29.10;43.50;;;;;;5038231;28;19935;-64
2022/08/13 12:11:48;;;;;;;1.52;1.23;;;29.00;43.20;;;;;;5041515;28;19924;-64
2022/08/13 12:14:35;;;;;;;1.25;1.15;;;29.10;44.10;;;;;;5056670;28;20101;-64
2022/08/13 12:17:02;;;;;;;2.97;1.48;;;29.20;44.70;;;;;;5057236;28;20049;-64
2022/08/13 12:19:29;;;;;;;1.90;1.60;;;29.40;44.90;;;;;;5057730;28;20541;-64
2022/08/13 12:21:56;;;;;;;4.20;1.10;;;29.60;42.20;;;;;;5056686;28;20045;-65
2022/08/13 12:24:23;;;;;;;1.77;1.40;;;29.60;42.40;;;;;;5055773;28;20525;-67
2022/08/13 12:27:03;;;;;;;1.25;1.02;;;29.70;41.20;;;;;;5056664;28;20044;-68
2022/08/13 12:29:33;;;;;;;7.32;1.30;;;29.70;38.80;;;;;;5056995;28;20047;-66
2022/08/13 12:32:14;;;;;;;3.92;1.33;;;29.60;39.60;;;;;;5057286;28;20047;-67
2022/08/13 12:34:43;;;;;;;1.73;1.00;;;29.60;38.00;;;;;;5056681;28;20387;-65
2022/08/13 12:37:22;;;;;;;0.95;0.82;;;29.60;40.20;;;;;;5055987;28;20133;-64
2022/08/13 12:39:51;;;;;;;2.60;1.00;;;29.70;38.90;;;;;;5056716;28;20152;-65
2022/08/13 12:42:21;;;;;;;2.75;1.35;;;29.90;39.60;;;;;;5043322;28;20071;-68
2022/08/13 12:44:55;;;;;;;0.80;0.80;;;30.00;39.90;;;;;;5035283;28;20041;-65
2022/08/13 12:47:45;;;;;;;0.90;0.88;;;30.10;37.70;;;;;;5051849;28;20341;-63
2022/08/13 12:50:17;;;;;;;2.75;1.15;;;30.20;35.40;;;;;;5055036;28;20286;-63
2022/08/13 12:52:48;;;;;;;0.95;0.88;;;30.40;36.00;;;;;;5055911;28;20043;-63
2022/08/13 12:55:17;;;;;;;1.55;1.00;;;30.50;34.20;;;;;;5056593;28;20040;-63
2022/08/13 12:58:14;;;;;;;1.05;0.95;;;30.70;35.30;;;;;;5055437;28;20513;-63
2022/08/13 13:00:48;;;;;;;11.15;2.10;;;30.80;35.10;;;;;;5056662;28;20045;-62
2022/08/13 13:03:16;;;;;;;1.83;1.17;;;30.90;37.60;;;;;;5049201;28;20072;-63
2022/08/13 13:05:45;;;;;;;4.15;1.05;;;30.90;38.10;;;;;;5048426;28;20094;-64
2022/08/13 13:08:21;;;;;;;1.33;1.23;;;30.90;37.80;;;;;;5055740;28;20039;-63
2022/08/13 13:11:10;;;;;;;1.92;1.73;;;30.90;38.30;;;;;;5056138;28;20423;-65
2022/08/13 13:13:41;;;;;;;3.22;1.60;;;30.90;39.70;;;;;;5053780;28;20094;-66
2022/08/13 13:16:25;;;;;;;2.75;1.15;;;30.90;37.70;;;;;;5055049;28;20125;-67
2022/08/13 13:19:06;;;;;;;1.75;1.20;;;30.90;37.90;;;;;;5055319;28;20052;-68
2022/08/13 13:21:43;;;;;;;3.38;1.20;;;30.80;37.80;;;;;;5055957;28;20141;-67
2022/08/13 13:24:13;;;;;;;8.18;1.85;;;30.70;37.90;;;;;;5054990;28;20053;-66
2022/08/13 13:26:49;;;;;;;2.05;1.20;;;30.60;37.90;;;;;;5056172;28;20123;-65
2022/08/13 13:29:26;;;;;;;1.25;1.15;;;30.40;38.40;;;;;;5054573;28;20037;-63
2022/08/13 13:31:54;;;;;;;1.48;1.25;;;30.20;39.20;;;;;;5054832;28;20136;-63
2022/08/13 13:34:44;;;;;;;2.60;1.45;;;29.90;38.80;;;;;;5055505;28;20048;-62
2022/08/13 13:37:13;;;;;;;2.33;1.33;;;29.80;39.50;;;;;;5055573;28;20072;-63
2022/08/13 13:39:42;;;;;;;1.25;1.13;;;29.80;40.30;;;;;;5055701;28;20148;-62
2022/08/13 13:42:11;;;;;;;1.48;0.98;;;29.90;40.90;;;;;;5054627;28;20052;-62
2022/08/13 13:44:56;;;;;;;3.83;1.17;;;30.10;40.00;;;;;;5055162;28;20155;-62
2022/08/13 13:47:23;;;;;;;1.67;1.17;;;30.30;39.10;;;;;;5054963;28;20059;-62
2022/08/13 13:49:52;;;;;;;1.27;1.17;;;30.40;37.30;;;;;;5055704;28;20089;-63
2022/08/13 13:52:20;;;;;;;1.55;1.10;;;30.50;37.30;;;;;;5054362;28;20068;-63
2022/08/13 13:54:49;;;;;;;1.05;0.90;;;30.70;36.90;;;;;;5054205;28;20820;-62